sensor_id;sensor_type;location;lat;lon;timestamp;P1;durP1;ratioP1;P2;durP2;ratioP2
27740;SDS011;15134;48.768;9.184;2022-08-19T00:00:12;19.48;;;14.93;;
27740;SDS011;15134;48.768;9.184;2022-08-19T00:02:40;17.52;;;14.50;;
27740;SDS011;15134;48.768;9.184;2022-08-19T00:05:07;17.33;;;14.07;;
27740;SDS011;15134;48.768;9.184;2022-08-19T00:07:34;17.15;;;14.07;;
27740;SDS011;15134;48.768;9.184;2022-08-19T00:10:00;16.67;;;14.70;;
27740;SDS011;15134;48.768;9.184;2022-08-19T00:12:26;16.47;;;14.37;;
27740;SDS011;15134;48.768;9.184;2022-08-19T00:14:52;17.15;;;14.27;;
27740;SDS011;15134;48.768;9.184;2022-08-19T00:17:19;18.30;;;14.93;;
27740;SDS011;15134;48.768;9.184;2022-08-19T00:19:46;19.17;;;14.65;;
27740;SDS011;15134;48.768;9.184;2022-08-19T00:22:12;16.90;;;14.07;;
27740;SDS011;15134;48.768;9.184;2022-08-19T00:24:38;19.07;;;14.03;;
27740;SDS011;15134;48.768;9.184;2022-08-19T00:27:06;17.63;;;14.05;;
27740;SDS011;15134;48.768;9.184;2022-08-19T00:29:32;17.73;;;13.55;;
27740;SDS011;15134;48.768;9.184;2022-08-19T00:31:57;17.70;;;15.03;;
27740;SDS011;15134;48.768;9.184;2022-08-19T00:34:25;18.90;;;15.23;;
27740;SDS011;15134;48.768;9.184;2022-08-19T00:36:53;20.58;;;14.57;;
27740;SDS011;15134;48.768;9.184;2022-08-19T00:39:19;20.60;;;14.35;;
27740;SDS011;15134;48.768;9.184;2022-08-19T00:41:45;17.87;;;14.63;;
27740;SDS011;15134;48.768;9.184;2022-08-19T00:44:15;19.73;;;15.63;;
27740;SDS011;15134;48.768;9.184;2022-08-19T00:46:45;19.35;;;14.65;;
27740;SDS011;15134;48.768;9.184;2022-08-19T00:49:16;20.10;;;16.15;;
27740;SDS011;15134;48.768;9.184;2022-08-19T00:51:48;18.58;;;15.05;;
27740;SDS011;15134;48.768;9.184;2022-08-19T00:54:17;19.42;;;15.23;;
27740;SDS011;15134;48.768;9.184;2022-08-19T00:56:43;20.00;;;15.85;;
27740;SDS011;15134;48.768;9.184;2022-08-19T00:59:11;20.70;;;16.35;;
27740;SDS011;15134;48.768;9.184;2022-08-19T01:01:39;22.67;;;16.27;;
27740;SDS011;15134;48.768;9.184;2022-08-19T01:04:06;19.00;;;15.38;;
27740;SDS011;15134;48.768;9.184;2022-08-19T01:06:33;18.52;;;15.27;;
27740;SDS011;15134;48.768;9.184;2022-08-19T01:09:00;21.27;;;15.68;;
27740;SDS011;15134;48.768;9.184;2022-08-19T01:11:27;17.25;;;15.25;;
27740;SDS011;15134;48.768;9.184;2022-08-19T01:13:55;19.40;;;15.52;;
27740;SDS011;15134;48.768;9.184;2022-08-19T01:16:22;17.48;;;15.63;;
27740;SDS011;15134;48.768;9.184;2022-08-19T01:18:50;17.65;;;14.95;;
27740;SDS011;15134;48.768;9.184;2022-08-19T01:21:18;20.83;;;14.53;;
27740;SDS011;15134;48.768;9.184;2022-08-19T01:23:49;20.52;;;15.07;;
27740;SDS011;15134;48.768;9.184;2022-08-19T01:26:18;20.05;;;15.82;;
27740;SDS011;15134;48.768;9.184;2022-08-19T01:28:47;19.90;;;15.48;;
27740;SDS011;15134;48.768;9.184;2022-08-19T01:31:16;19.40;;;14.68;;
27740;SDS011;15134;48.768;9.184;2022-08-19T01:33:48;19.98;;;15.15;;
27740;SDS011;15134;48.768;9.184;2022-08-19T01:36:22;17.70;;;15.68;;
27740;SDS011;15134;48.768;9.184;2022-08-19T01:39:00;18.08;;;16.10;;
27740;SDS011;15134;48.768;9.184;2022-08-19T01:41:29;20.83;;;15.88;;
27740;SDS011;15134;48.768;9.184;2022-08-19T01:43:55;20.33;;;16.73;;
27740;SDS011;15134;48.768;9.184;2022-08-19T01:46:21;20.02;;;16.55;;
27740;SDS011;15134;48.768;9.184;2022-08-19T01:48:47;20.23;;;16.73;;
27740;SDS011;15134;48.768;9.184;2022-08-19T01:51:13;18.33;;;15.10;;
27740;SDS011;15134;48.768;9.184;2022-08-19T01:53:39;20.70;;;15.98;;
27740;SDS011;15134;48.768;9.184;2022-08-19T01:56:05;18.13;;;16.17;;
27740;SDS011;15134;48.768;9.184;2022-08-19T02:01:02;20.52;;;16.48;;
27740;SDS011;15134;48.768;9.184;2022-08-19T02:03:28;19.65;;;16.30;;
27740;SDS011;15134;48.768;9.184;2022-08-19T02:05:55;20.60;;;16.47;;
27740;SDS011;15134;48.768;9.184;2022-08-19T02:08:26;20.98;;;15.77;;
27740;SDS011;15134;48.768;9.184;2022-08-19T02:10:52;19.50;;;16.15;;
27740;SDS011;15134;48.768;9.184;2022-08-19T02:13:19;21.35;;;17.13;;
27740;SDS011;15134;48.768;9.184;2022-08-19T02:15:44;20.30;;;17.17;;
27740;SDS011;15134;48.768;9.184;2022-08-19T02:18:10;20.70;;;17.25;;
27740;SDS011;15134;48.768;9.184;2022-08-19T02:20:37;22.60;;;17.98;;
27740;SDS011;15134;48.768;9.184;2022-08-19T02:23:04;22.67;;;18.55;;
27740;SDS011;15134;48.768;9.184;2022-08-19T02:25:31;24.65;;;19.08;;
27740;SDS011;15134;48.768;9.184;2022-08-19T02:27:56;23.73;;;18.70;;
27740;SDS011;15134;48.768;9.184;2022-08-19T02:30:22;21.23;;;18.33;;
27740;SDS011;15134;48.768;9.184;2022-08-19T02:32:49;22.92;;;18.65;;
27740;SDS011;15134;48.768;9.184;2022-08-19T02:35:15;21.95;;;18.67;;
27740;SDS011;15134;48.768;9.184;2022-08-19T02:40:27;23.50;;;18.10;;
27740;SDS011;15134;48.768;9.184;2022-08-19T02:42:54;25.00;;;20.10;;
27740;SDS011;15134;48.768;9.184;2022-08-19T02:50:12;26.80;;;19.60;;
27740;SDS011;15134;48.768;9.184;2022-08-19T02:52:39;28.98;;;20.70;;
27740;SDS011;15134;48.768;9.184;2022-08-19T02:55:05;26.97;;;20.77;;
27740;SDS011;15134;48.768;9.184;2022-08-19T02:57:31;30.85;;;21.17;;
27740;SDS011;15134;48.768;9.184;2022-08-19T02:59:58;26.45;;;21.63;;
27740;SDS011;15134;48.768;9.184;2022-08-19T03:02:23;24.80;;;20.33;;
27740;SDS011;15134;48.768;9.184;2022-08-19T03:04:49;25.52;;;20.33;;
27740;SDS011;15134;48.768;9.184;2022-08-19T03:07:16;29.20;;;21.45;;
27740;SDS011;15134;48.768;9.184;2022-08-19T03:09:43;26.90;;;21.98;;
27740;SDS011;15134;48.768;9.184;2022-08-19T03:12:10;30.17;;;22.85;;
27740;SDS011;15134;48.768;9.184;2022-08-19T03:14:36;29.27;;;21.88;;
27740;SDS011;15134;48.768;9.184;2022-08-19T03:17:02;28.33;;;22.88;;
27740;SDS011;15134;48.768;9.184;2022-08-19T03:19:29;26.92;;;22.55;;
27740;SDS011;15134;48.768;9.184;2022-08-19T03:21:56;27.58;;;22.23;;
27740;SDS011;15134;48.768;9.184;2022-08-19T03:24:23;29.23;;;23.40;;
27740;SDS011;15134;48.768;9.184;2022-08-19T03:26:54;29.13;;;21.83;;
27740;SDS011;15134;48.768;9.184;2022-08-19T03:29:22;30.92;;;23.77;;
27740;SDS011;15134;48.768;9.184;2022-08-19T03:31:49;32.60;;;23.90;;
27740;SDS011;15134;48.768;9.184;2022-08-19T03:34:20;29.08;;;22.35;;
27740;SDS011;15134;48.768;9.184;2022-08-19T03:36:51;30.50;;;23.77;;
27740;SDS011;15134;48.768;9.184;2022-08-19T03:39:17;30.02;;;24.50;;
27740;SDS011;15134;48.768;9.184;2022-08-19T03:41:44;26.30;;;21.73;;
27740;SDS011;15134;48.768;9.184;2022-08-19T03:44:15;30.20;;;23.80;;
27740;SDS011;15134;48.768;9.184;2022-08-19T03:46:45;30.13;;;22.50;;
27740;SDS011;15134;48.768;9.184;2022-08-19T03:49:12;30.75;;;23.52;;
27740;SDS011;15134;48.768;9.184;2022-08-19T03:51:38;30.67;;;25.17;;
27740;SDS011;15134;48.768;9.184;2022-08-19T03:54:05;28.57;;;24.10;;
27740;SDS011;15134;48.768;9.184;2022-08-19T03:56:34;29.10;;;23.42;;
27740;SDS011;15134;48.768;9.184;2022-08-19T03:59:00;31.30;;;24.15;;
27740;SDS011;15134;48.768;9.184;2022-08-19T04:06:21;30.30;;;25.05;;
27740;SDS011;15134;48.768;9.184;2022-08-19T04:08:55;31.95;;;25.77;;
27740;SDS011;15134;48.768;9.184;2022-08-19T04:11:23;38.55;;;30.40;;
27740;SDS011;15134;48.768;9.184;2022-08-19T04:13:51;48.45;;;34.80;;
27740;SDS011;15134;48.768;9.184;2022-08-19T04:16:19;33.88;;;26.50;;
27740;SDS011;15134;48.768;9.184;2022-08-19T04:18:47;30.27;;;24.85;;
27740;SDS011;15134;48.768;9.184;2022-08-19T04:21:19;35.80;;;28.30;;
27740;SDS011;15134;48.768;9.184;2022-08-19T04:23:46;43.88;;;34.70;;
27740;SDS011;15134;48.768;9.184;2022-08-19T04:26:20;33.60;;;26.60;;
27740;SDS011;15134;48.768;9.184;2022-08-19T04:28:50;32.80;;;26.35;;
27740;SDS011;15134;48.768;9.184;2022-08-19T04:31:26;32.85;;;26.33;;
27740;SDS011;15134;48.768;9.184;2022-08-19T04:33:58;30.83;;;25.58;;
27740;SDS011;15134;48.768;9.184;2022-08-19T04:36:26;33.08;;;25.75;;
27740;SDS011;15134;48.768;9.184;2022-08-19T04:38:54;32.25;;;26.73;;
27740;SDS011;15134;48.768;9.184;2022-08-19T04:41:22;35.92;;;27.58;;
27740;SDS011;15134;48.768;9.184;2022-08-19T04:44:07;38.90;;;28.60;;
27740;SDS011;15134;48.768;9.184;2022-08-19T04:46:33;32.92;;;26.73;;
27740;SDS011;15134;48.768;9.184;2022-08-19T04:49:00;37.10;;;28.30;;
27740;SDS011;15134;48.768;9.184;2022-08-19T04:51:26;31.63;;;25.20;;
27740;SDS011;15134;48.768;9.184;2022-08-19T04:53:52;31.53;;;25.30;;
27740;SDS011;15134;48.768;9.184;2022-08-19T04:56:20;31.90;;;25.48;;
27740;SDS011;15134;48.768;9.184;2022-08-19T04:58:47;29.95;;;24.73;;
27740;SDS011;15134;48.768;9.184;2022-08-19T05:01:20;37.88;;;28.17;;
27740;SDS011;15134;48.768;9.184;2022-08-19T05:03:50;32.63;;;26.80;;
27740;SDS011;15134;48.768;9.184;2022-08-19T05:06:18;33.42;;;27.00;;
27740;SDS011;15134;48.768;9.184;2022-08-19T05:08:46;31.45;;;26.15;;
27740;SDS011;15134;48.768;9.184;2022-08-19T05:11:20;28.05;;;23.67;;
27740;SDS011;15134;48.768;9.184;2022-08-19T05:13:47;36.00;;;29.45;;
27740;SDS011;15134;48.768;9.184;2022-08-19T05:16:14;37.15;;;29.10;;
27740;SDS011;15134;48.768;9.184;2022-08-19T05:18:42;33.08;;;25.90;;
27740;SDS011;15134;48.768;9.184;2022-08-19T05:21:28;33.75;;;27.13;;
27740;SDS011;15134;48.768;9.184;2022-08-19T05:24:14;30.17;;;25.67;;
27740;SDS011;15134;48.768;9.184;2022-08-19T05:26:44;29.15;;;23.98;;
27740;SDS011;15134;48.768;9.184;2022-08-19T05:29:12;31.27;;;25.00;;
27740;SDS011;15134;48.768;9.184;2022-08-19T05:31:39;31.33;;;24.95;;
27740;SDS011;15134;48.768;9.184;2022-08-19T05:34:05;34.50;;;26.58;;
27740;SDS011;15134;48.768;9.184;2022-08-19T05:36:40;30.95;;;24.73;;
27740;SDS011;15134;48.768;9.184;2022-08-19T05:39:10;31.33;;;25.55;;
27740;SDS011;15134;48.768;9.184;2022-08-19T05:41:57;30.50;;;26.25;;
27740;SDS011;15134;48.768;9.184;2022-08-19T05:44:26;31.67;;;26.25;;
27740;SDS011;15134;48.768;9.184;2022-08-19T05:46:56;31.90;;;24.83;;
27740;SDS011;15134;48.768;9.184;2022-08-19T05:49:23;32.60;;;25.20;;
27740;SDS011;15134;48.768;9.184;2022-08-19T05:51:50;35.42;;;24.88;;
27740;SDS011;15134;48.768;9.184;2022-08-19T05:54:17;32.30;;;25.08;;
27740;SDS011;15134;48.768;9.184;2022-08-19T05:59:09;29.58;;;25.67;;
27740;SDS011;15134;48.768;9.184;2022-08-19T06:01:37;30.38;;;24.98;;
27740;SDS011;15134;48.768;9.184;2022-08-19T06:04:03;32.83;;;25.85;;
27740;SDS011;15134;48.768;9.184;2022-08-19T06:06:29;31.90;;;27.05;;
27740;SDS011;15134;48.768;9.184;2022-08-19T06:08:55;32.05;;;27.05;;
27740;SDS011;15134;48.768;9.184;2022-08-19T06:11:22;35.45;;;26.30;;
27740;SDS011;15134;48.768;9.184;2022-08-19T06:13:57;30.92;;;25.55;;
27740;SDS011;15134;48.768;9.184;2022-08-19T06:16:27;36.97;;;27.30;;
27740;SDS011;15134;48.768;9.184;2022-08-19T06:18:54;31.45;;;25.38;;
27740;SDS011;15134;48.768;9.184;2022-08-19T06:21:22;32.78;;;25.60;;
27740;SDS011;15134;48.768;9.184;2022-08-19T06:23:50;29.77;;;25.10;;
27740;SDS011;15134;48.768;9.184;2022-08-19T06:26:17;33.33;;;24.15;;
27740;SDS011;15134;48.768;9.184;2022-08-19T06:28:43;36.65;;;26.73;;
27740;SDS011;15134;48.768;9.184;2022-08-19T06:34:00;32.80;;;26.13;;
27740;SDS011;15134;48.768;9.184;2022-08-19T06:36:38;31.83;;;24.92;;
27740;SDS011;15134;48.768;9.184;2022-08-19T06:39:12;29.52;;;23.98;;
27740;SDS011;15134;48.768;9.184;2022-08-19T06:41:41;32.28;;;25.45;;
27740;SDS011;15134;48.768;9.184;2022-08-19T06:44:15;32.15;;;27.42;;
27740;SDS011;15134;48.768;9.184;2022-08-19T06:46:42;32.33;;;24.98;;
27740;SDS011;15134;48.768;9.184;2022-08-19T06:49:08;31.77;;;26.23;;
27740;SDS011;15134;48.768;9.184;2022-08-19T06:51:36;32.90;;;26.70;;
27740;SDS011;15134;48.768;9.184;2022-08-19T06:54:02;31.80;;;26.75;;
27740;SDS011;15134;48.768;9.184;2022-08-19T06:56:29;29.20;;;25.45;;
27740;SDS011;15134;48.768;9.184;2022-08-19T06:58:59;33.25;;;27.55;;
27740;SDS011;15134;48.768;9.184;2022-08-19T07:01:26;34.42;;;27.10;;
27740;SDS011;15134;48.768;9.184;2022-08-19T07:03:52;35.00;;;27.70;;
27740;SDS011;15134;48.768;9.184;2022-08-19T07:06:18;31.90;;;27.40;;
27740;SDS011;15134;48.768;9.184;2022-08-19T07:08:45;31.55;;;25.50;;
27740;SDS011;15134;48.768;9.184;2022-08-19T07:11:13;35.88;;;28.38;;
27740;SDS011;15134;48.768;9.184;2022-08-19T07:13:40;33.95;;;27.05;;
27740;SDS011;15134;48.768;9.184;2022-08-19T07:16:09;42.25;;;34.45;;
27740;SDS011;15134;48.768;9.184;2022-08-19T07:18:38;35.30;;;26.95;;
27740;SDS011;15134;48.768;9.184;2022-08-19T07:21:05;34.25;;;28.63;;
27740;SDS011;15134;48.768;9.184;2022-08-19T07:23:32;47.05;;;36.03;;
27740;SDS011;15134;48.768;9.184;2022-08-19T07:28:29;29.73;;;25.83;;
27740;SDS011;15134;48.768;9.184;2022-08-19T07:30:54;34.60;;;26.80;;
27740;SDS011;15134;48.768;9.184;2022-08-19T07:33:20;45.03;;;33.27;;
27740;SDS011;15134;48.768;9.184;2022-08-19T07:35:46;39.70;;;31.13;;
27740;SDS011;15134;48.768;9.184;2022-08-19T07:38:12;35.20;;;28.00;;
27740;SDS011;15134;48.768;9.184;2022-08-19T07:40:38;31.88;;;24.95;;
27740;SDS011;15134;48.768;9.184;2022-08-19T07:43:06;31.25;;;24.70;;
27740;SDS011;15134;48.768;9.184;2022-08-19T07:45:31;37.87;;;26.33;;
27740;SDS011;15134;48.768;9.184;2022-08-19T07:47:57;34.93;;;27.90;;
27740;SDS011;15134;48.768;9.184;2022-08-19T07:50:23;29.33;;;24.88;;
27740;SDS011;15134;48.768;9.184;2022-08-19T07:52:49;33.90;;;24.00;;
27740;SDS011;15134;48.768;9.184;2022-08-19T07:55:15;31.13;;;25.33;;
27740;SDS011;15134;48.768;9.184;2022-08-19T07:57:44;33.95;;;25.73;;
27740;SDS011;15134;48.768;9.184;2022-08-19T08:00:09;30.90;;;24.63;;
27740;SDS011;15134;48.768;9.184;2022-08-19T08:02:37;29.83;;;24.50;;
27740;SDS011;15134;48.768;9.184;2022-08-19T08:05:04;43.35;;;32.80;;
27740;SDS011;15134;48.768;9.184;2022-08-19T08:07:49;30.02;;;24.63;;
27740;SDS011;15134;48.768;9.184;2022-08-19T08:10:33;28.50;;;23.73;;
27740;SDS011;15134;48.768;9.184;2022-08-19T08:12:59;30.13;;;24.33;;
27740;SDS011;15134;48.768;9.184;2022-08-19T08:15:25;26.30;;;21.92;;
27740;SDS011;15134;48.768;9.184;2022-08-19T08:17:51;31.23;;;23.43;;
27740;SDS011;15134;48.768;9.184;2022-08-19T08:20:17;31.13;;;24.60;;
27740;SDS011;15134;48.768;9.184;2022-08-19T08:22:44;31.70;;;24.10;;
27740;SDS011;15134;48.768;9.184;2022-08-19T08:25:30;26.60;;;22.88;;
27740;SDS011;15134;48.768;9.184;2022-08-19T08:27:56;30.02;;;22.95;;
27740;SDS011;15134;48.768;9.184;2022-08-19T08:30:25;32.85;;;23.92;;
27740;SDS011;15134;48.768;9.184;2022-08-19T08:32:52;31.65;;;24.25;;
27740;SDS011;15134;48.768;9.184;2022-08-19T08:35:19;30.87;;;23.93;;
27740;SDS011;15134;48.768;9.184;2022-08-19T08:37:48;34.20;;;23.70;;
27740;SDS011;15134;48.768;9.184;2022-08-19T08:40:22;32.42;;;25.17;;
27740;SDS011;15134;48.768;9.184;2022-08-19T08:43:05;27.88;;;23.30;;
27740;SDS011;15134;48.768;9.184;2022-08-19T08:45:58;29.95;;;23.30;;
27740;SDS011;15134;48.768;9.184;2022-08-19T08:48:39;28.38;;;23.45;;
27740;SDS011;15134;48.768;9.184;2022-08-19T08:51:18;29.25;;;24.25;;
27740;SDS011;15134;48.768;9.184;2022-08-19T08:53:49;32.58;;;27.08;;
27740;SDS011;15134;48.768;9.184;2022-08-19T08:56:19;34.95;;;27.38;;
27740;SDS011;15134;48.768;9.184;2022-08-19T08:58:51;33.20;;;27.55;;
27740;SDS011;15134;48.768;9.184;2022-08-19T09:01:23;34.33;;;28.42;;
27740;SDS011;15134;48.768;9.184;2022-08-19T09:03:49;39.35;;;29.33;;
27740;SDS011;15134;48.768;9.184;2022-08-19T09:12:31;31.98;;;26.17;;
27740;SDS011;15134;48.768;9.184;2022-08-19T09:17:09;30.63;;;22.65;;
27740;SDS011;15134;48.768;9.184;2022-08-19T09:19:57;26.75;;;22.02;;
27740;SDS011;15134;48.768;9.184;2022-08-19T09:22:40;27.63;;;22.73;;
27740;SDS011;15134;48.768;9.184;2022-08-19T09:25:09;25.63;;;22.20;;
27740;SDS011;15134;48.768;9.184;2022-08-19T09:27:38;25.83;;;21.75;;
27740;SDS011;15134;48.768;9.184;2022-08-19T09:30:05;25.15;;;21.52;;
27740;SDS011;15134;48.768;9.184;2022-08-19T09:32:33;27.00;;;21.33;;
27740;SDS011;15134;48.768;9.184;2022-08-19T09:34:58;26.80;;;21.67;;
27740;SDS011;15134;48.768;9.184;2022-08-19T09:37:25;32.33;;;23.40;;
27740;SDS011;15134;48.768;9.184;2022-08-19T09:39:51;29.73;;;22.10;;
27740;SDS011;15134;48.768;9.184;2022-08-19T09:42:18;31.33;;;23.35;;
27740;SDS011;15134;48.768;9.184;2022-08-19T09:49:38;24.92;;;20.55;;
27740;SDS011;15134;48.768;9.184;2022-08-19T09:54:33;29.92;;;19.70;;
27740;SDS011;15134;48.768;9.184;2022-08-19T10:01:51;24.25;;;17.60;;
27740;SDS011;15134;48.768;9.184;2022-08-19T10:04:17;22.92;;;17.77;;
27740;SDS011;15134;48.768;9.184;2022-08-19T10:06:43;23.05;;;17.73;;
27740;SDS011;15134;48.768;9.184;2022-08-19T10:09:09;22.60;;;17.03;;
27740;SDS011;15134;48.768;9.184;2022-08-19T10:14:04;20.98;;;17.63;;
27740;SDS011;15134;48.768;9.184;2022-08-19T10:16:33;22.40;;;17.00;;
27740;SDS011;15134;48.768;9.184;2022-08-19T10:19:01;22.20;;;15.70;;
27740;SDS011;15134;48.768;9.184;2022-08-19T10:21:28;26.85;;;17.17;;
27740;SDS011;15134;48.768;9.184;2022-08-19T10:23:57;20.75;;;17.15;;
27740;SDS011;15134;48.768;9.184;2022-08-19T10:26:25;20.80;;;15.65;;
27740;SDS011;15134;48.768;9.184;2022-08-19T10:28:54;21.88;;;16.55;;
27740;SDS011;15134;48.768;9.184;2022-08-19T10:31:21;46.08;;;17.38;;
27740;SDS011;15134;48.768;9.184;2022-08-19T10:33:49;19.48;;;14.73;;
27740;SDS011;15134;48.768;9.184;2022-08-19T10:36:19;21.05;;;16.25;;
27740;SDS011;15134;48.768;9.184;2022-08-19T10:38:49;26.70;;;16.27;;
27740;SDS011;15134;48.768;9.184;2022-08-19T10:41:17;34.97;;;16.42;;
27740;SDS011;15134;48.768;9.184;2022-08-19T10:43:44;21.00;;;15.23;;
27740;SDS011;15134;48.768;9.184;2022-08-19T10:46:12;18.58;;;15.63;;
27740;SDS011;15134;48.768;9.184;2022-08-19T10:48:40;19.35;;;14.88;;
27740;SDS011;15134;48.768;9.184;2022-08-19T10:51:07;18.60;;;15.27;;
27740;SDS011;15134;48.768;9.184;2022-08-19T10:53:52;16.42;;;14.13;;
27740;SDS011;15134;48.768;9.184;2022-08-19T10:56:18;21.33;;;13.82;;
27740;SDS011;15134;48.768;9.184;2022-08-19T10:59:03;16.45;;;13.73;;
27740;SDS011;15134;48.768;9.184;2022-08-19T11:01:30;15.60;;;12.77;;
27740;SDS011;15134;48.768;9.184;2022-08-19T11:03:59;15.90;;;13.07;;
27740;SDS011;15134;48.768;9.184;2022-08-19T11:06:25;18.23;;;12.68;;
27740;SDS011;15134;48.768;9.184;2022-08-19T11:08:52;16.90;;;12.63;;
27740;SDS011;15134;48.768;9.184;2022-08-19T11:11:19;15.30;;;12.45;;
27740;SDS011;15134;48.768;9.184;2022-08-19T11:13:46;15.40;;;12.07;;
27740;SDS011;15134;48.768;9.184;2022-08-19T11:16:25;17.83;;;13.05;;
27740;SDS011;15134;48.768;9.184;2022-08-19T11:18:56;17.25;;;12.48;;
27740;SDS011;15134;48.768;9.184;2022-08-19T11:21:28;18.50;;;13.05;;
27740;SDS011;15134;48.768;9.184;2022-08-19T11:24:09;19.98;;;13.85;;
27740;SDS011;15134;48.768;9.184;2022-08-19T11:26:41;24.23;;;19.38;;
27740;SDS011;15134;48.768;9.184;2022-08-19T11:29:09;16.85;;;11.93;;
27740;SDS011;15134;48.768;9.184;2022-08-19T11:31:38;27.38;;;18.67;;
27740;SDS011;15134;48.768;9.184;2022-08-19T11:34:07;23.98;;;16.58;;
27740;SDS011;15134;48.768;9.184;2022-08-19T11:36:39;23.35;;;18.63;;
27740;SDS011;15134;48.768;9.184;2022-08-19T11:39:08;18.48;;;14.77;;
27740;SDS011;15134;48.768;9.184;2022-08-19T11:41:35;16.55;;;11.98;;
27740;SDS011;15134;48.768;9.184;2022-08-19T11:44:01;17.77;;;13.03;;
27740;SDS011;15134;48.768;9.184;2022-08-19T11:46:29;15.05;;;12.23;;
27740;SDS011;15134;48.768;9.184;2022-08-19T11:48:56;14.55;;;10.80;;
27740;SDS011;15134;48.768;9.184;2022-08-19T11:51:24;13.18;;;10.35;;
27740;SDS011;15134;48.768;9.184;2022-08-19T11:53:51;14.02;;;10.82;;
27740;SDS011;15134;48.768;9.184;2022-08-19T11:56:18;15.25;;;10.95;;
27740;SDS011;15134;48.768;9.184;2022-08-19T11:58:45;13.27;;;10.60;;
27740;SDS011;15134;48.768;9.184;2022-08-19T12:01:12;11.77;;;10.02;;
27740;SDS011;15134;48.768;9.184;2022-08-19T12:03:43;13.80;;;10.40;;
27740;SDS011;15134;48.768;9.184;2022-08-19T12:06:11;14.30;;;10.98;;
27740;SDS011;15134;48.768;9.184;2022-08-19T12:08:43;16.05;;;10.85;;
27740;SDS011;15134;48.768;9.184;2022-08-19T12:11:09;15.20;;;10.70;;
27740;SDS011;15134;48.768;9.184;2022-08-19T12:13:36;17.65;;;11.18;;
27740;SDS011;15134;48.768;9.184;2022-08-19T12:16:07;15.85;;;11.50;;
27740;SDS011;15134;48.768;9.184;2022-08-19T12:18:37;15.18;;;11.20;;
27740;SDS011;15134;48.768;9.184;2022-08-19T12:21:08;13.07;;;10.32;;
27740;SDS011;15134;48.768;9.184;2022-08-19T12:23:36;20.70;;;16.35;;
27740;SDS011;15134;48.768;9.184;2022-08-19T12:26:02;22.67;;;16.80;;
27740;SDS011;15134;48.768;9.184;2022-08-19T12:30:55;15.60;;;11.90;;
27740;SDS011;15134;48.768;9.184;2022-08-19T12:35:50;15.95;;;12.90;;
27740;SDS011;15134;48.768;9.184;2022-08-19T12:38:16;15.65;;;12.77;;
27740;SDS011;15134;48.768;9.184;2022-08-19T12:40:45;17.20;;;11.98;;
27740;SDS011;15134;48.768;9.184;2022-08-19T12:43:11;16.08;;;13.27;;
27740;SDS011;15134;48.768;9.184;2022-08-19T12:45:38;17.80;;;14.75;;
27740;SDS011;15134;48.768;9.184;2022-08-19T12:48:04;18.30;;;13.88;;
27740;SDS011;15134;48.768;9.184;2022-08-19T12:50:30;18.67;;;14.27;;
27740;SDS011;15134;48.768;9.184;2022-08-19T12:52:56;16.37;;;13.07;;
27740;SDS011;15134;48.768;9.184;2022-08-19T12:57:49;17.55;;;13.55;;
27740;SDS011;15134;48.768;9.184;2022-08-19T13:00:16;16.42;;;13.13;;
27740;SDS011;15134;48.768;9.184;2022-08-19T13:02:46;16.88;;;12.63;;
27740;SDS011;15134;48.768;9.184;2022-08-19T13:05:23;20.73;;;13.65;;
27740;SDS011;15134;48.768;9.184;2022-08-19T13:07:51;16.65;;;13.80;;
27740;SDS011;15134;48.768;9.184;2022-08-19T13:10:21;17.83;;;13.93;;
27740;SDS011;15134;48.768;9.184;2022-08-19T13:12:48;15.80;;;14.10;;
27740;SDS011;15134;48.768;9.184;2022-08-19T13:15:16;19.33;;;14.75;;
27740;SDS011;15134;48.768;9.184;2022-08-19T13:17:45;18.40;;;15.82;;
27740;SDS011;15134;48.768;9.184;2022-08-19T13:20:16;22.90;;;18.08;;
27740;SDS011;15134;48.768;9.184;2022-08-19T13:22:44;25.17;;;19.10;;
27740;SDS011;15134;48.768;9.184;2022-08-19T13:25:11;25.63;;;20.40;;
27740;SDS011;15134;48.768;9.184;2022-08-19T13:27:38;26.95;;;21.55;;
27740;SDS011;15134;48.768;9.184;2022-08-19T13:30:05;24.40;;;21.55;;
27740;SDS011;15134;48.768;9.184;2022-08-19T13:32:51;34.22;;;27.80;;
27740;SDS011;15134;48.768;9.184;2022-08-19T13:35:36;29.35;;;25.73;;
27740;SDS011;15134;48.768;9.184;2022-08-19T13:38:05;34.05;;;27.00;;
27740;SDS011;15134;48.768;9.184;2022-08-19T13:40:31;37.03;;;28.45;;
27740;SDS011;15134;48.768;9.184;2022-08-19T13:42:58;33.42;;;28.13;;
27740;SDS011;15134;48.768;9.184;2022-08-19T13:45:26;35.40;;;28.10;;
27740;SDS011;15134;48.768;9.184;2022-08-19T13:47:54;36.78;;;28.70;;
27740;SDS011;15134;48.768;9.184;2022-08-19T13:50:23;37.70;;;29.35;;
27740;SDS011;15134;48.768;9.184;2022-08-19T13:52:53;35.67;;;30.75;;
27740;SDS011;15134;48.768;9.184;2022-08-19T13:55:20;36.67;;;30.00;;
27740;SDS011;15134;48.768;9.184;2022-08-19T14:00:19;36.97;;;30.35;;
27740;SDS011;15134;48.768;9.184;2022-08-19T14:02:46;42.40;;;33.55;;
27740;SDS011;15134;48.768;9.184;2022-08-19T14:05:16;38.60;;;32.60;;
27740;SDS011;15134;48.768;9.184;2022-08-19T14:07:43;40.45;;;33.70;;
27740;SDS011;15134;48.768;9.184;2022-08-19T14:10:10;43.80;;;36.40;;
27740;SDS011;15134;48.768;9.184;2022-08-19T14:12:36;41.67;;;35.33;;
27740;SDS011;15134;48.768;9.184;2022-08-19T14:15:03;43.35;;;34.30;;
27740;SDS011;15134;48.768;9.184;2022-08-19T14:17:30;36.83;;;31.75;;
27740;SDS011;15134;48.768;9.184;2022-08-19T14:19:56;35.90;;;31.53;;
27740;SDS011;15134;48.768;9.184;2022-08-19T14:22:27;41.08;;;33.15;;
27740;SDS011;15134;48.768;9.184;2022-08-19T14:24:53;38.38;;;31.77;;
27740;SDS011;15134;48.768;9.184;2022-08-19T14:27:19;37.53;;;29.80;;
27740;SDS011;15134;48.768;9.184;2022-08-19T14:29:44;37.70;;;28.73;;
27740;SDS011;15134;48.768;9.184;2022-08-19T14:32:10;35.08;;;29.10;;
27740;SDS011;15134;48.768;9.184;2022-08-19T14:37:02;30.63;;;25.60;;
27740;SDS011;15134;48.768;9.184;2022-08-19T14:39:28;29.47;;;24.93;;
27740;SDS011;15134;48.768;9.184;2022-08-19T14:41:54;28.37;;;24.10;;
27740;SDS011;15134;48.768;9.184;2022-08-19T14:44:21;26.10;;;21.95;;
27740;SDS011;15134;48.768;9.184;2022-08-19T14:46:47;26.83;;;22.92;;
27740;SDS011;15134;48.768;9.184;2022-08-19T14:49:13;26.90;;;20.93;;
27740;SDS011;15134;48.768;9.184;2022-08-19T14:51:39;25.77;;;21.33;;
27740;SDS011;15134;48.768;9.184;2022-08-19T14:54:05;25.73;;;22.67;;
27740;SDS011;15134;48.768;9.184;2022-08-19T14:56:30;25.90;;;21.43;;
27740;SDS011;15134;48.768;9.184;2022-08-19T14:58:56;26.60;;;20.10;;
27740;SDS011;15134;48.768;9.184;2022-08-19T15:01:25;22.02;;;19.25;;
27740;SDS011;15134;48.768;9.184;2022-08-19T15:03:52;24.20;;;19.75;;
27740;SDS011;15134;48.768;9.184;2022-08-19T15:06:19;24.45;;;18.70;;
27740;SDS011;15134;48.768;9.184;2022-08-19T15:08:46;22.73;;;18.02;;
27740;SDS011;15134;48.768;9.184;2022-08-19T15:11:13;20.67;;;18.17;;
27740;SDS011;15134;48.768;9.184;2022-08-19T15:13:40;19.55;;;16.75;;
27740;SDS011;15134;48.768;9.184;2022-08-19T15:16:08;19.50;;;17.45;;
27740;SDS011;15134;48.768;9.184;2022-08-19T15:18:33;24.60;;;17.48;;
27740;SDS011;15134;48.768;9.184;2022-08-19T15:21:00;17.48;;;15.27;;
27740;SDS011;15134;48.768;9.184;2022-08-19T15:23:27;19.02;;;15.80;;
27740;SDS011;15134;48.768;9.184;2022-08-19T15:25:52;18.13;;;15.93;;